Time;durP1;ratioP1;P1;durP2;ratioP2;P2;SDS_P1;SDS_P2;PMS_P1;PMS_P2;Temp;Humidity;BMP_temperature;BMP_pressure;BME280_temperature;BME280_humidity;BME280_pressure;Samples;Min_cycle;Max_cycle;Signal;HPM_P1;HPM_P2
2023/07/24 00:00:27;;;;;;;12.33;7.20;;;;;;;15.86;100.00;99832.31;4976052;28;20455;-85
2023/07/24 00:02:53;;;;;;;12.20;8.07;;;;;;;15.84;100.00;99829.03;4992287;28;20031;-86
2023/07/24 00:05:19;;;;;;;10.60;7.63;;;;;;;15.80;100.00;99825.09;5007051;28;20049;-86
2023/07/24 00:07:44;;;;;;;11.13;7.95;;;;;;;15.77;100.00;99823.69;5006931;28;20118;-83
2023/07/24 00:10:09;;;;;;;11.87;7.93;;;;;;;15.79;100.00;99820.78;5007181;28;20037;-84
2023/07/24 00:12:35;;;;;;;9.50;6.70;;;;;;;15.83;100.00;99819.31;4980914;28;20030;-85
2023/07/24 00:15:00;;;;;;;16.80;8.57;;;;;;;15.80;100.00;99811.66;4999456;28;20400;-85
2023/07/24 00:17:26;;;;;;;10.80;7.73;;;;;;;15.81;100.00;99807.94;5007119;28;20035;-85
2023/07/24 00:19:51;;;;;;;11.37;7.20;;;;;;;15.83;100.00;99801.28;5009051;28;20458;-85
2023/07/24 00:22:16;;;;;;;10.27;6.80;;;;;;;15.84;100.00;99812.88;5007005;28;20041;-85
2023/07/24 00:24:41;;;;;;;8.80;6.90;;;;;;;15.85;100.00;99813.69;5007210;28;20033;-85
2023/07/24 00:27:07;;;;;;;12.27;7.33;;;;;;;15.83;100.00;99811.25;5002414;28;20030;-85
2023/07/24 00:29:32;;;;;;;14.03;6.93;;;;;;;15.83;100.00;99814.75;5003578;28;20524;-85
2023/07/24 00:31:58;;;;;;;12.67;8.13;;;;;;;15.83;100.00;99805.84;5009828;28;20057;-84
2023/07/24 00:34:23;;;;;;;9.27;6.30;;;;;;;15.87;100.00;99811.59;5004742;28;20030;-85
2023/07/24 00:36:48;;;;;;;9.87;7.27;;;;;;;15.86;100.00;99810.78;4991608;28;20503;-85
2023/07/24 00:39:14;;;;;;;13.30;6.87;;;;;;;15.93;100.00;99819.63;5007694;28;20026;-85
2023/07/24 00:41:40;;;;;;;12.88;7.80;;;;;;;15.97;100.00;99815.47;5004036;28;20025;-86
2023/07/24 00:44:05;;;;;;;13.30;6.97;;;;;;;15.92;100.00;99803.69;4978279;28;20030;-86
2023/07/24 00:46:32;;;;;;;10.03;7.93;;;;;;;15.94;100.00;99810.50;4987123;28;20034;-85
2023/07/24 00:48:59;;;;;;;12.00;7.43;;;;;;;15.93;100.00;99810.75;5018962;28;20548;-85
2023/07/24 00:51:27;;;;;;;14.55;8.27;;;;;;;15.96;100.00;99815.66;5010994;28;20169;-85
2023/07/24 00:53:57;;;;;;;8.65;6.65;;;;;;;15.92;100.00;99812.63;5010829;28;20041;-85
2023/07/24 00:56:23;;;;;;;12.90;8.20;;;;;;;15.91;100.00;99808.25;4995102;28;20401;-86
2023/07/24 00:58:49;;;;;;;11.20;7.32;;;;;;;15.92;100.00;99809.06;4979394;28;20026;-86
2023/07/24 01:01:17;;;;;;;13.63;8.32;;;;;;;15.94;100.00;99815.06;5006249;28;20033;-86
2023/07/24 01:03:43;;;;;;;17.05;7.90;;;;;;;15.91;100.00;99813.63;4989791;28;20107;-85
2023/07/24 01:06:09;;;;;;;10.85;7.93;;;;;;;15.84;100.00;99799.41;5010671;28;20030;-86
2023/07/24 01:08:36;;;;;;;12.52;7.03;;;;;;;15.85;100.00;99802.94;5011103;28;20109;-86
2023/07/24 01:11:10;;;;;;;13.23;7.90;;;;;;;15.86;100.00;99802.72;5004939;28;20029;-86
2023/07/24 01:13:40;;;;;;;;;;;;;;;15.89;100.00;99810.34;4990085;28;20030;-86
2023/07/24 01:16:14;;;;;;;15.90;8.35;;;;;;;15.83;100.00;99800.47;4997605;28;19977;-85
2023/07/24 01:18:42;;;;;;;13.43;8.25;;;;;;;15.80;100.00;99795.50;5000260;28;20026;-86
2023/07/24 01:21:11;;;;;;;10.52;7.32;;;;;;;15.82;100.00;99809.56;4993298;28;20086;-85
2023/07/24 01:24:09;;;;;;;13.55;8.15;;;;;;;15.82;100.00;99798.81;5010587;28;20026;-84
2023/07/24 01:26:35;;;;;;;14.98;8.15;;;;;;;15.83;100.00;99808.53;4988826;28;20423;-86
2023/07/24 01:29:00;;;;;;;12.27;8.60;;;;;;;15.80;100.00;99806.28;5011846;28;20026;-86
2023/07/24 01:31:25;;;;;;;16.73;8.43;;;;;;;15.76;100.00;99795.13;4994549;28;20112;-85
2023/07/24 01:33:51;;;;;;;14.97;8.73;;;;;;;15.79;100.00;99796.56;4977408;28;20510;-85
2023/07/24 01:36:18;;;;;;;11.57;8.27;;;;;;;15.75;100.00;99793.47;4996490;28;20519;-83
2023/07/24 01:38:44;;;;;;;16.40;8.70;;;;;;;15.78;100.00;99808.34;4988802;28;20026;-86
2023/07/24 01:41:10;;;;;;;10.63;8.25;;;;;;;15.79;100.00;99804.63;5001569;28;20026;-86
2023/07/24 01:43:36;;;;;;;21.13;10.60;;;;;;;15.80;100.00;99796.34;5010511;28;20030;-86
2023/07/24 01:46:02;;;;;;;16.80;9.73;;;;;;;15.79;100.00;99800.06;5010396;28;20061;-87
2023/07/24 01:48:27;;;;;;;13.17;9.63;;;;;;;15.81;100.00;99791.78;4993194;28;20364;-84
2023/07/24 01:50:53;;;;;;;11.98;9.82;;;;;;;15.88;100.00;99802.50;4996054;28;20038;-86
2023/07/24 01:53:18;;;;;;;12.83;9.47;;;;;;;15.90;100.00;99800.41;4994408;28;20037;-86
2023/07/24 01:55:44;;;;;;;16.07;8.87;;;;;;;15.89;100.00;99798.75;5020067;28;20077;-85
2023/07/24 01:58:09;;;;;;;15.02;10.20;;;;;;;15.89;100.00;99783.44;5012611;28;20060;-86
2023/07/24 02:00:35;;;;;;;15.13;9.97;;;;;;;15.93;100.00;99789.19;5011194;28;20073;-86
2023/07/24 02:03:00;;;;;;;13.87;9.47;;;;;;;15.93;100.00;99800.78;5011205;28;20113;-85
2023/07/24 02:05:26;;;;;;;16.37;9.67;;;;;;;15.94;100.00;99790.84;5011758;28;20041;-85
2023/07/24 02:07:51;;;;;;;17.67;10.50;;;;;;;15.93;100.00;99798.09;4980168;28;20058;-85
2023/07/24 02:10:17;;;;;;;18.52;9.77;;;;;;;16.02;100.00;99804.84;5012100;28;20285;-85
2023/07/24 02:12:42;;;;;;;16.80;10.27;;;;;;;16.03;100.00;99795.72;4996323;28;20026;-86
2023/07/24 02:15:08;;;;;;;16.03;9.73;;;;;;;16.10;100.00;99789.47;4972819;28;20087;-86
2023/07/24 02:17:34;;;;;;;15.82;11.45;;;;;;;16.14;100.00;99787.97;5020221;28;20026;-86
2023/07/24 02:20:00;;;;;;;16.83;9.83;;;;;;;16.11;100.00;99769.53;4998293;28;20041;-83
2023/07/24 02:22:26;;;;;;;17.10;11.13;;;;;;;16.07;100.00;99757.59;5011852;28;20025;-86
2023/07/24 02:24:52;;;;;;;20.23;10.83;;;;;;;16.08;100.00;99780.78;4996674;28;20038;-86
2023/07/24 02:27:28;;;;;;;12.67;10.33;;;;;;;16.11;100.00;99777.63;5011297;28;20030;-86
2023/07/24 02:29:57;;;;;;;20.08;11.20;;;;;;;16.18;100.00;99770.34;4999246;28;20074;-86
2023/07/24 02:32:23;;;;;;;16.52;10.85;;;;;;;16.17;100.00;99755.22;4996182;28;20041;-86
2023/07/24 02:34:52;;;;;;;;;;;;;;;16.20;100.00;99752.06;5020612;28;20114;-86
2023/07/24 02:37:18;;;;;;;20.20;10.38;;;;;;;16.22;100.00;99760.75;5012665;28;19974;-86
2023/07/24 02:39:43;;;;;;;17.10;11.05;;;;;;;16.18;100.00;99749.59;4983683;28;20058;-86
2023/07/24 02:42:09;;;;;;;15.30;11.80;;;;;;;16.22;100.00;99750.81;5011982;28;20106;-86
2023/07/24 02:44:34;;;;;;;15.33;11.87;;;;;;;16.26;100.00;99759.25;4997290;28;20067;-85
2023/07/24 02:47:01;;;;;;;15.55;10.73;;;;;;;16.31;100.00;99770.16;5003350;28;20057;-86
2023/07/24 02:49:28;;;;;;;22.70;11.10;;;;;;;16.33;100.00;99770.78;4996701;28;20026;-85
2023/07/24 02:51:54;;;;;;;15.05;10.80;;;;;;;16.34;100.00;99769.75;5020558;28;20026;-86
2023/07/24 02:54:19;;;;;;;13.63;9.80;;;;;;;16.37;100.00;99757.69;5010267;28;20021;-86
2023/07/24 02:56:44;;;;;;;15.90;10.87;;;;;;;16.40;100.00;99752.66;5018054;28;20473;-86
2023/07/24 02:59:10;;;;;;;13.63;10.53;;;;;;;16.43;100.00;99752.22;5005374;28;20465;-85
2023/07/24 03:01:36;;;;;;;15.60;10.60;;;;;;;16.46;100.00;99741.00;5013157;28;20034;-87
2023/07/24 03:04:02;;;;;;;;;;;;;;;16.52;100.00;99738.44;5023891;28;20042;-86
2023/07/24 03:06:27;;;;;;;13.50;9.63;;;;;;;16.48;100.00;99723.78;4996966;28;19916;-87
2023/07/24 03:08:53;;;;;;;13.88;10.45;;;;;;;16.56;100.00;99734.25;5000642;28;20043;-86
2023/07/24 03:11:19;;;;;;;12.80;10.23;;;;;;;16.53;100.00;99724.75;5006018;28;20468;-86
2023/07/24 03:13:44;;;;;;;15.17;10.50;;;;;;;16.53;100.00;99718.53;4997981;28;20050;-86
2023/07/24 03:16:09;;;;;;;15.47;10.47;;;;;;;16.55;100.00;99717.28;4985058;28;20113;-86
2023/07/24 03:18:35;;;;;;;14.07;10.47;;;;;;;16.63;100.00;99716.13;4992859;28;20504;-87
2023/07/24 03:21:00;;;;;;;15.23;9.83;;;;;;;16.60;100.00;99709.34;4993955;28;20022;-86
2023/07/24 03:23:26;;;;;;;16.10;10.10;;;;;;;16.66;100.00;99715.69;4974227;28;20560;-86
2023/07/24 03:25:51;;;;;;;15.27;9.95;;;;;;;16.62;100.00;99714.47;5007044;28;20113;-86
2023/07/24 03:28:17;;;;;;;14.57;9.33;;;;;;;16.67;100.00;99718.16;4995136;28;20072;-86
2023/07/24 03:30:42;;;;;;;12.50;9.50;;;;;;;16.70;100.00;99719.56;4994081;28;20030;-86
2023/07/24 03:33:07;;;;;;;12.67;9.47;;;;;;;16.63;100.00;99697.28;5009360;28;20620;-86
2023/07/24 03:35:33;;;;;;;13.03;9.90;;;;;;;16.62;100.00;99711.78;4994828;28;20030;-86
2023/07/24 03:37:58;;;;;;;14.33;9.40;;;;;;;16.64;100.00;99713.19;5014245;28;20052;-86
2023/07/24 03:40:25;;;;;;;;;;;;;;;16.67;100.00;99714.63;5012586;28;20028;-86
2023/07/24 03:42:50;;;;;;;16.23;10.52;;;;;;;16.63;100.00;99706.19;5000403;28;19914;-85
2023/07/24 03:45:16;;;;;;;11.13;8.80;;;;;;;16.59;100.00;99709.56;5019164;28;20025;-87
2023/07/24 03:47:41;;;;;;;12.07;9.47;;;;;;;16.65;100.00;99719.44;5001643;28;20034;-86
2023/07/24 03:50:07;;;;;;;12.03;8.17;;;;;;;16.70;100.00;99719.56;5008111;28;20740;-87
2023/07/24 03:52:32;;;;;;;20.13;9.55;;;;;;;16.69;100.00;99715.22;5007761;28;20331;-85
2023/07/24 03:54:57;;;;;;;15.47;9.93;;;;;;;16.66;100.00;99712.97;5001305;28;20116;-85
2023/07/24 03:57:26;;;;;;;16.07;9.07;;;;;;;16.70;100.00;99711.47;5021635;28;20050;-87
2023/07/24 03:59:51;;;;;;;13.13;9.30;;;;;;;16.63;100.00;99706.19;4993026;28;20054;-86
2023/07/24 04:02:17;;;;;;;13.53;9.73;;;;;;;16.68;100.00;99721.66;4991924;28;20037;-87
2023/07/24 04:04:42;;;;;;;23.57;10.47;;;;;;;16.65;100.00;99716.75;4973788;28;20065;-86
2023/07/24 04:07:07;;;;;;;13.80;8.80;;;;;;;16.61;100.00;99720.94;5009276;28;20664;-86
2023/07/24 04:09:33;;;;;;;15.63;9.17;;;;;;;16.66;100.00;99724.56;5011735;28;20401;-87
2023/07/24 04:11:58;;;;;;;14.80;9.43;;;;;;;16.69;100.00;99736.75;5016991;28;20463;-86
2023/07/24 04:14:23;;;;;;;15.17;10.00;;;;;;;16.71;100.00;99725.78;4979219;28;20022;-88
2023/07/24 04:16:49;;;;;;;12.83;8.77;;;;;;;16.67;100.00;99722.72;5004389;28;20042;-88
2023/07/24 04:19:14;;;;;;;16.10;10.03;;;;;;;16.70;100.00;99726.84;4992469;28;20022;-87
2023/07/24 04:21:40;;;;;;;17.90;9.80;;;;;;;16.65;100.00;99714.84;5016853;28;20438;-87
2023/07/24 04:24:05;;;;;;;15.10;9.17;;;;;;;16.72;100.00;99722.03;5012529;28;20824;-87
2023/07/24 04:26:30;;;;;;;13.32;9.10;;;;;;;16.67;100.00;99714.63;4982004;28;20026;-87
2023/07/24 04:28:56;;;;;;;14.40;9.13;;;;;;;16.67;100.00;99720.03;4989863;28;20038;-87
2023/07/24 04:31:21;;;;;;;16.40;9.20;;;;;;;16.67;100.00;99717.34;5013294;28;20026;-87
2023/07/24 04:33:46;;;;;;;12.33;8.67;;;;;;;16.72;100.00;99722.03;5020698;28;20491;-87
2023/07/24 04:36:12;;;;;;;11.73;9.13;;;;;;;16.78;100.00;99721.94;5016460;28;20677;-87
2023/07/24 04:38:37;;;;;;;15.00;9.17;;;;;;;16.68;100.00;99714.38;5003493;28;20090;-87
2023/07/24 04:41:03;;;;;;;13.50;8.67;;;;;;;16.77;100.00;99720.28;5014415;28;20189;-86
2023/07/24 04:43:29;;;;;;;17.38;9.02;;;;;;;16.75;100.00;99725.09;5004687;28;20037;-87
2023/07/24 04:45:55;;;;;;;13.02;8.05;;;;;;;16.77;100.00;99719.47;4997298;28;20078;-88
2023/07/24 04:48:20;;;;;;;14.00;9.27;;;;;;;16.76;100.00;99724.03;4993408;28;20863;-86
2023/07/24 04:50:46;;;;;;;14.18;9.02;;;;;;;16.78;100.00;99721.94;4998981;28;20292;-87
2023/07/24 04:53:12;;;;;;;13.63;8.67;;;;;;;16.69;100.00;99707.13;4997468;28;20026;-87
2023/07/24 04:55:37;;;;;;;13.82;8.57;;;;;;;16.74;100.00;99714.53;4980210;28;20046;-86
2023/07/24 04:58:02;;;;;;;17.20;9.60;;;;;;;16.76;100.00;99707.84;5024339;28;20095;-87
2023/07/24 05:00:28;;;;;;;17.60;10.00;;;;;;;16.70;100.00;99706.09;5002460;28;20038;-87
2023/07/24 05:02:53;;;;;;;13.33;8.47;;;;;;;16.74;100.00;99709.97;5012690;28;20026;-86
2023/07/24 05:05:18;;;;;;;18.43;9.23;;;;;;;16.75;100.00;99717.00;5017729;28;20045;-87
2023/07/24 05:07:44;;;;;;;17.40;10.00;;;;;;;16.79;100.00;99718.22;4999244;28;20026;-87
2023/07/24 05:10:09;;;;;;;16.93;9.27;;;;;;;16.71;100.00;99710.41;4996034;28;20068;-86
2023/07/24 05:12:35;;;;;;;17.90;9.23;;;;;;;16.76;100.00;99723.22;4997495;28;20559;-87
2023/07/24 05:15:00;;;;;;;18.87;10.07;;;;;;;16.73;100.00;99721.78;4997900;28;20259;-87
2023/07/24 05:17:25;;;;;;;13.43;8.90;;;;;;;16.76;100.00;99720.50;4987636;28;20030;-88
2023/07/24 05:19:51;;;;;;;20.00;9.90;;;;;;;16.75;100.00;99716.19;5017712;28;20045;-86
2023/07/24 05:22:16;;;;;;;12.10;9.03;;;;;;;16.77;100.00;99709.53;4998191;28;20037;-86
2023/07/24 05:24:41;;;;;;;14.43;8.47;;;;;;;16.71;100.00;99706.91;5027919;28;20038;-86
2023/07/24 05:27:07;;;;;;;16.93;9.07;;;;;;;16.66;100.00;99708.41;5013783;28;20030;-86
2023/07/24 05:29:32;;;;;;;18.00;9.93;;;;;;;16.74;100.00;99720.75;4982657;28;20030;-86
2023/07/24 05:31:58;;;;;;;13.00;8.47;;;;;;;16.79;100.00;99720.94;5028461;28;20040;-86
2023/07/24 05:34:24;;;;;;;13.05;8.20;;;;;;;16.87;100.00;99704.41;4997140;28;20029;-85
2023/07/24 05:36:49;;;;;;;14.18;8.88;;;;;;;17.07;100.00;99711.41;4983085;28;20562;-86
2023/07/24 05:39:15;;;;;;;15.60;9.00;;;;;;;17.16;100.00;99712.72;4997483;28;20034;-86
2023/07/24 05:41:48;;;;;;;13.50;9.18;;;;;;;17.13;100.00;99704.28;4980555;28;20034;-86
2023/07/24 05:44:14;;;;;;;14.75;9.73;;;;;;;17.11;100.00;99703.66;4995919;28;20034;-86
2023/07/24 05:46:39;;;;;;;14.27;8.82;;;;;;;17.19;100.00;99719.53;5028706;28;20407;-87
2023/07/24 05:49:04;;;;;;;15.17;8.80;;;;;;;17.07;100.00;99706.03;4996309;28;20472;-86
2023/07/24 05:51:30;;;;;;;14.30;7.83;;;;;;;17.07;100.00;99689.84;4989059;28;20029;-86
2023/07/24 05:53:55;;;;;;;14.67;8.73;;;;;;;17.14;100.00;99705.91;5006104;28;20101;-86
2023/07/24 05:56:21;;;;;;;13.27;8.43;;;;;;;17.01;100.00;99679.97;4992546;28;20117;-86
2023/07/24 05:58:46;;;;;;;14.33;9.30;;;;;;;17.13;100.00;99697.00;4998697;28;20332;-86
2023/07/24 06:01:11;;;;;;;12.03;10.03;;;;;;;17.10;100.00;99689.38;5012743;28;20053;-85
2023/07/24 06:03:38;;;;;;;14.37;10.50;;;;;;;17.10;100.00;99702.84;5012379;28;20030;-86
2023/07/24 06:06:04;;;;;;;13.52;8.77;;;;;;;17.12;100.00;99691.84;4983970;28;20029;-87
2023/07/24 06:08:29;;;;;;;13.10;9.73;;;;;;;17.46;100.00;99709.13;4994201;28;20656;-86
2023/07/24 06:10:55;;;;;;;15.27;9.47;;;;;;;17.51;100.00;99698.44;5013869;28;20030;-86
2023/07/24 06:13:20;;;;;;;12.67;9.47;;;;;;;17.55;100.00;99710.44;5024478;28;20121;-86
2023/07/24 06:15:49;;;;;;;12.43;9.10;;;;;;;17.49;100.00;99690.63;4999152;28;20085;-85
2023/07/24 06:18:15;;;;;;;14.68;9.55;;;;;;;17.56;100.00;99685.09;5005913;28;20083;-85
2023/07/24 06:20:41;;;;;;;14.13;8.75;;;;;;;17.59;100.00;99684.63;4988667;28;20015;-85
2023/07/24 06:23:06;;;;;;;13.18;8.85;;;;;;;17.65;100.00;99688.25;4994083;28;20022;-85
2023/07/24 06:25:32;;;;;;;17.97;9.73;;;;;;;17.60;100.00;99675.47;5010951;28;20479;-86
2023/07/24 06:27:57;;;;;;;12.60;10.00;;;;;;;17.45;100.00;99670.53;4981518;28;20038;-83
2023/07/24 06:30:23;;;;;;;12.52;9.40;;;;;;;17.49;100.00;99668.22;4995901;28;20030;-85
2023/07/24 06:32:49;;;;;;;14.55;9.70;;;;;;;17.56;100.00;99679.72;4995597;28;20038;-86
2023/07/24 06:35:14;;;;;;;11.77;8.33;;;;;;;17.48;100.00;99682.75;5008479;28;20678;-86
2023/07/24 06:37:39;;;;;;;13.45;9.40;;;;;;;17.45;100.00;99675.13;5000897;28;20030;-85
2023/07/24 06:40:07;;;;;;;15.10;9.50;;;;;;;17.33;100.00;99679.69;4980074;28;20272;-86
2023/07/24 06:42:32;;;;;;;11.90;8.60;;;;;;;17.39;100.00;99676.03;4988580;28;20089;-83
2023/07/24 06:44:57;;;;;;;13.95;9.27;;;;;;;17.36;100.00;99666.53;5018962;28;20492;-86
2023/07/24 06:47:23;;;;;;;24.87;11.13;;;;;;;17.38;100.00;99672.53;4998469;28;20042;-86
2023/07/24 06:49:48;;;;;;;12.37;8.40;;;;;;;17.22;100.00;99674.03;5024603;28;20044;-86
2023/07/24 06:52:14;;;;;;;12.47;9.27;;;;;;;17.22;100.00;99682.13;5000755;28;20081;-86
2023/07/24 06:54:39;;;;;;;14.93;8.97;;;;;;;17.13;100.00;99670.03;5008746;28;20030;-86
2023/07/24 06:57:04;;;;;;;12.13;9.13;;;;;;;17.16;100.00;99666.88;4991438;28;20030;-85
2023/07/24 06:59:30;;;;;;;16.17;11.17;;;;;;;17.31;100.00;99677.22;4977814;28;20026;-85
2023/07/24 07:01:55;;;;;;;13.60;8.50;;;;;;;17.41;100.00;99665.84;4984978;28;20022;-85
2023/07/24 07:04:20;;;;;;;12.17;7.40;;;;;;;17.44;100.00;99651.88;4980287;28;20058;-88
2023/07/24 07:06:46;;;;;;;14.60;9.77;;;;;;;17.42;100.00;99643.19;4990693;28;20062;-86
2023/07/24 07:09:11;;;;;;;11.90;8.53;;;;;;;17.50;100.00;99634.75;5007094;28;20431;-86
2023/07/24 07:11:37;;;;;;;12.70;9.47;;;;;;;17.43;100.00;99637.56;4997740;28;20107;-87
2023/07/24 07:14:02;;;;;;;13.73;8.73;;;;;;;17.58;100.00;99645.19;4994867;28;20029;-88
2023/07/24 07:16:27;;;;;;;14.07;9.73;;;;;;;17.55;100.00;99618.69;5003931;28;20057;-86
2023/07/24 07:18:53;;;;;;;13.43;9.03;;;;;;;17.54;100.00;99621.63;5016304;28;20087;-86
2023/07/24 07:21:18;;;;;;;13.00;8.30;;;;;;;17.60;100.00;99632.28;5004999;28;20034;-87
2023/07/24 07:23:43;;;;;;;12.90;9.60;;;;;;;17.52;100.00;99624.56;5007033;28;20507;-86
2023/07/24 07:26:09;;;;;;;11.77;8.67;;;;;;;17.65;100.00;99621.63;4991627;28;20037;-86
2023/07/24 07:28:34;;;;;;;14.20;8.90;;;;;;;17.99;100.00;99629.91;4998540;28;20101;-86
2023/07/24 07:30:59;;;;;;;10.83;8.67;;;;;;;18.08;100.00;99598.78;5006887;28;20033;-88
2023/07/24 07:33:25;;;;;;;12.03;8.80;;;;;;;17.76;100.00;99586.75;5006569;28;20022;-86
2023/07/24 07:35:50;;;;;;;12.53;9.20;;;;;;;18.01;100.00;99610.78;5024084;28;20036;-87
2023/07/24 07:38:16;;;;;;;10.32;8.55;;;;;;;18.11;100.00;99605.59;5007265;28;20546;-86
2023/07/24 07:40:41;;;;;;;11.13;8.27;;;;;;;18.31;100.00;99602.47;5014930;28;20037;-86
2023/07/24 07:43:06;;;;;;;14.70;8.60;;;;;;;18.05;100.00;99568.72;4992793;28;20507;-87
2023/07/24 07:45:32;;;;;;;13.83;8.93;;;;;;;18.14;100.00;99587.03;5009720;28;20174;-86
2023/07/24 07:47:57;;;;;;;10.67;8.70;;;;;;;18.07;100.00;99583.63;4991562;28;20663;-86
2023/07/24 07:50:22;;;;;;;12.93;8.43;;;;;;;18.17;100.00;99571.38;4990023;28;20121;-86
2023/07/24 07:52:52;;;;;;;11.77;9.50;;;;;;;18.36;100.00;99589.06;5005526;28;20270;-86
2023/07/24 07:55:20;;;;;;;11.70;8.65;;;;;;;18.55;100.00;99579.66;5003965;28;20555;-87
2023/07/24 07:57:45;;;;;;;14.50;9.82;;;;;;;18.47;100.00;99565.72;4993192;28;20022;-87
2023/07/24 08:00:11;;;;;;;13.53;8.70;;;;;;;18.31;100.00;99554.66;4997510;28;20034;-87
2023/07/24 08:02:39;;;;;;;14.55;9.43;;;;;;;18.09;100.00;99534.78;4991562;28;20034;-86
2023/07/24 08:05:08;;;;;;;13.43;9.40;;;;;;;18.15;100.00;99571.63;5008754;28;20068;-87
2023/07/24 08:07:34;;;;;;;13.88;9.65;;;;;;;17.93;100.00;99545.31;5005386;28;20021;-86
2023/07/24 08:09:59;;;;;;;13.73;9.70;;;;;;;18.11;100.00;99573.19;4999859;28;20033;-87
2023/07/24 08:12:24;;;;;;;13.60;9.40;;;;;;;18.16;100.00;99569.75;5014253;28;20292;-86
2023/07/24 08:14:50;;;;;;;13.03;7.93;;;;;;;18.26;100.00;99569.94;4989458;28;20038;-86
2023/07/24 08:17:15;;;;;;;14.27;8.20;;;;;;;18.41;100.00;99569.41;5017798;28;20025;-87
2023/07/24 08:19:40;;;;;;;12.33;9.00;;;;;;;18.47;100.00;99553.06;5008279;28;20030;-87
2023/07/24 08:22:06;;;;;;;13.40;8.00;;;;;;;18.24;100.00;99548.59;4989998;28;20523;-86
2023/07/24 08:24:35;;;;;;;12.03;9.03;;;;;;;18.29;100.00;99569.47;4989906;28;20038;-87
2023/07/24 08:27:01;;;;;;;15.77;9.13;;;;;;;18.27;100.00;99566.19;4988483;28;20096;-87
2023/07/24 08:29:26;;;;;;;10.93;8.65;;;;;;;18.32;100.00;99583.31;4972455;28;20576;-87
2023/07/24 08:31:52;;;;;;;10.85;8.90;;;;;;;18.28;100.00;99538.91;5004603;28;20068;-87
2023/07/24 08:34:17;;;;;;;11.70;8.63;;;;;;;18.31;100.00;99527.63;5001268;28;20072;-87
2023/07/24 08:36:42;;;;;;;11.87;8.37;;;;;;;18.39;100.00;99521.00;5008591;28;20029;-86
2023/07/24 08:39:08;;;;;;;13.43;8.87;;;;;;;18.54;100.00;99513.19;5013064;28;20480;-87
2023/07/24 08:41:34;;;;;;;13.47;8.53;;;;;;;18.55;100.00;99522.91;4980662;28;20054;-87
2023/07/24 08:43:59;;;;;;;;;;;;;;;18.68;100.00;99510.97;4990902;28;20092;-87
2023/07/24 08:46:25;;;;;;;10.57;8.57;;;;;;;18.38;100.00;99480.72;4994342;28;19984;-87
2023/07/24 08:48:54;;;;;;;10.73;7.88;;;;;;;18.21;100.00;99467.19;5014398;28;20026;-86
2023/07/24 08:51:22;;;;;;;13.38;9.10;;;;;;;18.33;100.00;99489.56;4995136;28;20038;-86
2023/07/24 08:53:48;;;;;;;10.38;8.38;;;;;;;18.29;100.00;99493.81;4997866;28;20104;-87
2023/07/24 08:56:14;;;;;;;12.38;8.20;;;;;;;18.49;100.00;99525.75;5009325;28;20041;-86
2023/07/24 08:58:39;;;;;;;19.92;8.35;;;;;;;18.51;100.00;99513.66;5008268;28;20565;-86
2023/07/24 09:01:05;;;;;;;11.80;9.20;;;;;;;18.40;100.00;99490.22;5011063;28;20022;-85
2023/07/24 09:03:32;;;;;;;13.63;8.70;;;;;;;18.53;100.00;99500.72;5000043;28;20816;-85
2023/07/24 09:05:57;;;;;;;11.70;8.30;;;;;;;18.49;100.00;99490.63;4993631;28;20033;-87
2023/07/24 09:08:30;;;;;;;12.17;8.07;;;;;;;18.77;100.00;99517.63;5025424;28;20030;-86
2023/07/24 09:10:55;;;;;;;13.48;8.23;;;;;;;18.55;100.00;99487.78;4996569;28;20093;-86
2023/07/24 09:13:21;;;;;;;9.73;7.43;;;;;;;18.79;100.00;99517.38;5015457;28;20084;-86
2023/07/24 09:15:46;;;;;;;13.17;7.93;;;;;;;19.04;100.00;99480.97;5031227;28;20056;-86
2023/07/24 09:18:12;;;;;;;9.82;7.20;;;;;;;19.12;100.00;99431.84;5011975;28;20057;-86
2023/07/24 09:20:40;;;;;;;11.43;7.70;;;;;;;19.11;100.00;99449.16;5011655;28;20045;-86
2023/07/24 09:23:05;;;;;;;11.68;7.55;;;;;;;19.43;100.00;99449.28;5011253;28;20035;-86
2023/07/24 09:25:31;;;;;;;14.70;8.43;;;;;;;19.40;100.00;99364.00;5018956;28;20114;-87
2023/07/24 09:27:58;;;;;;;9.35;7.35;;;;;;;19.51;100.00;99393.91;4993145;28;20029;-86
2023/07/24 09:30:24;;;;;;;10.35;6.60;;;;;;;19.85;100.00;99402.66;5023105;28;20033;-86
2023/07/24 09:32:55;;;;;;;12.27;8.10;;;;;;;19.73;100.00;99324.28;5010913;28;20029;-87
2023/07/24 09:35:28;;;;;;;9.63;7.85;;;;;;;19.80;100.00;99338.44;4998221;28;20034;-88
2023/07/24 09:38:10;;;;;;;10.43;6.97;;;;;;;20.00;100.00;99290.94;4991974;28;20034;-88
2023/07/24 09:40:43;;;;;;;10.25;6.85;;;;;;;20.00;100.00;99356.75;4992011;28;20030;-87
2023/07/24 09:43:26;;;;;;;9.60;7.07;;;;;;;20.74;100.00;99338.03;5008084;28;20504;-88
2023/07/24 09:45:53;;;;;;;11.68;6.90;;;;;;;21.05;100.00;99100.25;5001665;28;20038;-86
2023/07/24 09:48:20;;;;;;;9.73;7.10;;;;;;;22.01;100.00;99100.31;5008998;28;20022;-87
2023/07/24 09:50:47;;;;;;;10.02;6.75;;;;;;;21.92;100.00;98967.00;5002110;28;20034;-87
2023/07/24 09:53:48;;;;;;;10.82;7.30;;;;;;;22.07;100.00;98936.19;4993017;28;20018;-88
2023/07/24 09:56:14;;;;;;;10.55;6.65;;;;;;;21.47;100.00;98890.91;4991386;28;20034;-89
2023/07/24 09:58:43;;;;;;;9.45;6.25;;;;;;;22.10;100.00;98979.09;5016508;28;20029;-88
2023/07/24 10:01:10;;;;;;;9.32;6.15;;;;;;;22.05;100.00;98897.59;4994849;28;20041;-88
2023/07/24 10:03:39;;;;;;;9.25;5.82;;;;;;;21.13;100.00;98846.53;5011186;28;20550;-88
2023/07/24 10:06:05;;;;;;;9.82;6.53;;;;;;;20.76;100.00;98977.91;4992322;28;20034;-88
2023/07/24 10:08:30;;;;;;;10.63;6.00;;;;;;;20.73;100.00;99130.31;5014149;28;20014;-88
2023/07/24 10:10:58;;;;;;;12.90;5.97;;;;;;;20.63;100.00;99215.97;4995759;28;20061;-87
2023/07/24 10:13:25;;;;;;;8.48;6.30;;;;;;;20.58;100.00;99145.47;5010290;28;20045;-89
2023/07/24 10:15:51;;;;;;;8.50;5.90;;;;;;;20.65;100.00;99205.69;5010284;28;20038;-88
2023/07/24 10:18:18;;;;;;;8.15;5.88;;;;;;;21.46;100.00;99241.38;5008470;28;20029;-88
2023/07/24 10:20:44;;;;;;;7.28;6.47;;;;;;;21.44;100.00;99092.34;4985185;28;20038;-88
2023/07/24 10:23:10;;;;;;;8.63;5.32;;;;;;;21.07;100.00;99044.63;4993278;28;20022;-88
2023/07/24 10:25:43;;;;;;;8.25;5.32;;;;;;;21.26;100.00;99114.63;5006462;28;20105;-86
2023/07/24 10:28:15;;;;;;;8.05;6.15;;;;;;;21.44;100.00;98978.31;5007813;28;20113;-86
2023/07/24 10:30:42;;;;;;;9.80;5.55;;;;;;;21.75;100.00;99094.16;4978967;28;20062;-87
2023/07/24 10:33:09;;;;;;;7.20;5.18;;;;;;;23.36;100.00;99084.50;5003664;28;20022;-87
2023/07/24 10:35:42;;;;;;;9.23;5.80;;;;;;;23.81;100.00;98760.09;4975401;28;20033;-86
2023/07/24 10:38:07;;;;;;;7.25;5.60;;;;;;;23.26;100.00;98610.94;4999285;28;20038;-87
2023/07/24 10:40:33;;;;;;;7.40;5.95;;;;;;;23.20;100.00;98857.09;5006900;28;20033;-88
2023/07/24 10:43:00;;;;;;;;;;;;;;;23.30;100.00;98671.84;4974497;28;20112;-88
2023/07/24 10:45:26;;;;;;;8.20;5.75;;;;;;;22.66;100.00;98578.91;5017404;28;19924;-88
2023/07/24 10:47:52;;;;;;;6.38;5.40;;;;;;;22.08;100.00;98750.34;5000906;28;20042;-88
2023/07/24 10:50:17;;;;;;;7.35;6.28;;;;;;;22.02;100.00;98922.63;4992214;28;20084;-88
2023/07/24 10:52:42;;;;;;;9.83;5.53;;;;;;;22.64;100.00;98760.63;5022774;28;20767;-88
2023/07/24 10:55:08;;;;;;;12.13;5.70;;;;;;;23.93;100.00;98844.13;4998373;28;20117;-89
2023/07/24 10:57:46;;;;;;;9.88;5.25;;;;;;;24.28;100.00;98698.22;4990408;28;20097;-87
2023/07/24 11:00:13;;;;;;;9.05;5.55;;;;;;;24.71;100.00;98678.00;4990884;28;20057;-88
2023/07/24 11:02:38;;;;;;;7.00;5.43;;;;;;;23.54;100.00;98297.81;4974124;28;20014;-87
2023/07/24 11:05:04;;;;;;;9.77;5.47;;;;;;;24.18;100.00;98633.75;5006909;28;20556;-88
2023/07/24 11:07:33;;;;;;;7.93;5.03;;;;;;;22.99;100.00;98374.09;5006164;28;20102;-87
2023/07/24 11:09:58;;;;;;;9.88;6.28;;;;;;;22.34;100.00;98708.22;4992789;28;20034;-86
2023/07/24 11:12:26;;;;;;;10.20;5.90;;;;;;;22.68;100.00;98907.72;4975608;28;20366;-87
2023/07/24 11:14:58;;;;;;;9.30;6.00;;;;;;;22.06;100.00;98891.09;4982192;28;20050;-87